Time;durP1;ratioP1;P1;durP2;ratioP2;P2;SDS_P1;SDS_P2;PMS_P1;PMS_P2;Temp;Humidity;BMP_temperature;BMP_pressure;BME280_temperature;BME280_humidity;BME280_pressure;Samples;Min_cycle;Max_cycle;Signal;HPM_P1;HPM_P2
2022/05/07 00:01:38;;;;;;;3.27;2.83;;;10.10;99.90;;;;;;5043972;28;21468;-83
2022/05/07 00:04:03;;;;;;;4.03;2.90;;;10.10;99.90;;;;;;5044771;28;20283;-82
2022/05/07 00:06:29;;;;;;;2.80;2.60;;;10.10;99.90;;;;;;5043999;28;20504;-83
2022/05/07 00:08:55;;;;;;;4.33;2.60;;;10.00;99.90;;;;;;5044007;28;20206;-82
2022/05/07 00:11:20;;;;;;;3.73;2.63;;;10.00;99.90;;;;;;5044080;28;20198;-83
2022/05/07 00:13:47;;;;;;;4.97;2.50;;;9.90;99.90;;;;;;5028952;28;20217;-83
2022/05/07 00:18:57;;;;;;;2.60;2.40;;;9.80;99.90;;;;;;5029336;28;20197;-81
2022/05/07 00:21:23;;;;;;;3.27;2.70;;;9.80;99.90;;;;;;5044186;28;20191;-83
2022/05/07 00:23:48;;;;;;;3.23;2.63;;;9.70;99.90;;;;;;5044092;28;20187;-82
2022/05/07 00:26:14;;;;;;;2.67;2.47;;;9.60;99.90;;;;;;5030005;28;20221;-80
2022/05/07 00:28:40;;;;;;;4.10;2.87;;;9.60;99.90;;;;;;5044337;28;20326;-82
2022/05/07 00:31:05;;;;;;;3.20;2.80;;;9.60;99.90;;;;;;5029406;28;20185;-84
2022/05/07 00:33:31;;;;;;;3.30;3.00;;;9.50;99.90;;;;;;5044426;28;20293;-82
2022/05/07 00:35:57;;;;;;;3.60;2.90;;;9.50;99.90;;;;;;5045010;28;20778;-82
2022/05/07 00:38:22;;;;;;;3.07;2.57;;;9.50;99.90;;;;;;5043883;28;20578;-84
2022/05/07 00:40:48;;;;;;;3.70;2.80;;;9.50;99.90;;;;;;5044774;28;20254;-81
2022/05/07 00:43:15;;;;;;;3.23;2.90;;;9.50;99.90;;;;;;5044921;28;20207;-83
2022/05/07 00:45:45;;;;;;;5.37;3.20;;;9.50;99.90;;;;;;5044412;28;20187;-83
2022/05/07 00:48:15;;;;;;;3.50;3.10;;;9.50;99.90;;;;;;5029408;28;20215;-82
2022/05/07 00:53:26;;;;;;;3.47;3.13;;;9.30;99.90;;;;;;5029197;28;20210;-83
2022/05/07 00:55:51;;;;;;;4.00;3.60;;;9.20;99.90;;;;;;5044808;28;20183;-82
2022/05/07 00:58:20;;;;;;;3.60;3.20;;;9.20;99.90;;;;;;5043550;28;20183;-83
2022/05/07 01:00:46;;;;;;;3.33;3.03;;;9.10;99.90;;;;;;5043987;28;20187;-83
2022/05/07 01:03:12;;;;;;;3.70;3.40;;;9.10;99.90;;;;;;5043383;28;20210;-80
2022/05/07 01:05:39;;;;;;;4.00;2.70;;;9.10;99.90;;;;;;5043879;28;20187;-81
2022/05/07 01:08:08;;;;;;;3.90;3.10;;;9.00;99.90;;;;;;5043568;28;20799;-84
2022/05/07 01:10:34;;;;;;;4.37;3.50;;;9.00;99.90;;;;;;5044300;28;20762;-83
2022/05/07 01:13:00;;;;;;;4.37;3.77;;;8.90;99.90;;;;;;5028540;28;20202;-82
2022/05/07 01:15:25;;;;;;;3.50;3.10;;;9.00;99.90;;;;;;5044676;28;20271;-83
2022/05/07 01:17:51;;;;;;;3.50;3.13;;;9.00;99.90;;;;;;5043644;28;20321;-82
2022/05/07 01:20:17;;;;;;;5.33;3.70;;;9.00;99.90;;;;;;5044462;28;20185;-83
2022/05/07 01:22:45;;;;;;;6.27;4.03;;;9.00;99.90;;;;;;5028460;28;20199;-83
2022/05/07 01:25:11;;;;;;;5.17;3.60;;;9.10;99.90;;;;;;5027167;28;20186;-84
2022/05/07 01:27:36;;;;;;;5.87;3.83;;;9.20;99.90;;;;;;5043639;28;20202;-83
2022/05/07 01:30:03;;;;;;;4.40;3.23;;;9.30;99.90;;;;;;5029374;28;20190;-83
2022/05/07 01:32:29;;;;;;;3.87;3.27;;;9.30;99.90;;;;;;5043920;28;20213;-80
2022/05/07 01:34:54;;;;;;;5.50;3.77;;;9.20;99.90;;;;;;5043840;28;20293;-83
2022/05/07 01:37:20;;;;;;;5.30;3.60;;;9.30;99.90;;;;;;5043462;28;20187;-83
2022/05/07 01:39:46;;;;;;;6.07;3.20;;;9.30;99.90;;;;;;5043901;28;20187;-83
2022/05/07 01:42:11;;;;;;;4.97;3.50;;;9.20;99.90;;;;;;5044408;28;20206;-81
2022/05/07 01:44:37;;;;;;;6.43;4.00;;;9.10;99.90;;;;;;5028343;28;20187;-83
2022/05/07 01:49:47;;;;;;;3.90;3.40;;;9.00;99.90;;;;;;5029275;28;20596;-84
2022/05/07 01:52:14;;;;;;;4.77;3.47;;;8.90;99.90;;;;;;5047730;28;20237;-83
2022/05/07 01:54:39;;;;;;;4.63;3.37;;;8.80;99.90;;;;;;5031927;28;20718;-82
2022/05/07 01:57:05;;;;;;;6.90;3.37;;;8.70;99.90;;;;;;5046915;28;20179;-81
2022/05/07 01:59:31;;;;;;;3.57;2.97;;;8.70;99.90;;;;;;5047635;28;20175;-82
2022/05/07 02:01:56;;;;;;;4.00;3.50;;;8.60;99.90;;;;;;5047713;28;20198;-82
2022/05/07 02:04:22;;;;;;;4.20;3.53;;;8.60;99.90;;;;;;5047097;28;20183;-82
2022/05/07 02:06:48;;;;;;;3.07;2.77;;;8.50;99.90;;;;;;5047344;28;20211;-83
2022/05/07 02:09:13;;;;;;;3.23;2.97;;;8.40;99.90;;;;;;5032019;28;20206;-80
2022/05/07 02:11:39;;;;;;;3.33;2.80;;;8.50;99.90;;;;;;5032618;28;20222;-84
2022/05/07 02:14:05;;;;;;;4.57;3.20;;;8.50;99.90;;;;;;5046923;28;20187;-80
2022/05/07 02:16:31;;;;;;;3.57;2.97;;;8.50;99.90;;;;;;5047649;28;20524;-83
2022/05/07 02:18:57;;;;;;;4.03;3.10;;;8.50;99.90;;;;;;5046794;28;20266;-81
2022/05/07 02:21:22;;;;;;;3.27;2.87;;;8.40;99.90;;;;;;5047579;28;20190;-82
2022/05/07 02:23:48;;;;;;;3.40;3.10;;;8.40;99.90;;;;;;5047121;28;20187;-83
2022/05/07 02:26:14;;;;;;;4.33;3.40;;;8.40;99.90;;;;;;5047523;28;20191;-82
2022/05/07 02:28:39;;;;;;;4.13;3.30;;;8.50;99.90;;;;;;5046352;28;20803;-80
2022/05/07 02:31:05;;;;;;;3.37;3.07;;;8.60;99.90;;;;;;5029712;28;20190;-82
2022/05/07 02:33:30;;;;;;;3.53;3.23;;;8.50;99.90;;;;;;5043682;28;20286;-81
2022/05/07 02:35:56;;;;;;;3.90;3.50;;;8.40;99.90;;;;;;5043077;28;20179;-80
2022/05/07 02:38:22;;;;;;;4.00;3.10;;;8.40;99.90;;;;;;5027730;28;20696;-81
2022/05/07 02:43:31;;;;;;;4.00;3.60;;;8.40;99.90;;;;;;5028343;28;20248;-80
2022/05/07 02:45:57;;;;;;;5.13;3.43;;;8.40;99.90;;;;;;5043958;28;20191;-80
2022/05/07 02:48:23;;;;;;;4.00;3.33;;;8.40;99.90;;;;;;5043311;28;20241;-82
2022/05/07 02:50:48;;;;;;;4.30;3.60;;;8.30;99.90;;;;;;5043424;28;20910;-82
2022/05/07 02:53:14;;;;;;;6.03;4.07;;;8.40;99.90;;;;;;5044399;28;20195;-81
2022/05/07 02:55:39;;;;;;;3.77;3.20;;;8.30;99.90;;;;;;5046786;28;20209;-83
2022/05/07 02:58:06;;;;;;;6.23;3.40;;;8.30;99.90;;;;;;5046123;28;20721;-83
2022/05/07 03:00:32;;;;;;;6.63;3.00;;;8.30;99.90;;;;;;5030220;28;20182;-82
2022/05/07 03:02:58;;;;;;;3.70;3.20;;;8.40;99.90;;;;;;5045588;28;20218;-82
2022/05/07 03:05:23;;;;;;;4.00;3.37;;;8.30;99.90;;;;;;5046071;28;20195;-83
2022/05/07 03:07:49;;;;;;;4.90;3.27;;;8.40;99.90;;;;;;5045730;28;20268;-83
2022/05/07 03:10:15;;;;;;;4.03;3.07;;;8.50;99.90;;;;;;5046117;28;20187;-83
2022/05/07 03:12:41;;;;;;;4.13;2.80;;;8.30;99.90;;;;;;5045542;28;20240;-81
2022/05/07 03:15:07;;;;;;;3.00;2.50;;;8.30;99.90;;;;;;5029204;28;20183;-83
2022/05/07 03:17:34;;;;;;;3.20;2.60;;;8.30;99.90;;;;;;5030075;28;20197;-82
2022/05/07 03:20:00;;;;;;;3.00;2.30;;;8.30;99.90;;;;;;5046020;28;20189;-79
2022/05/07 03:22:26;;;;;;;3.73;2.60;;;8.30;99.90;;;;;;5046059;28;20562;-79
2022/05/07 03:24:51;;;;;;;2.90;2.60;;;8.30;99.90;;;;;;5045207;28;20278;-85
2022/05/07 03:27:17;;;;;;;3.10;2.80;;;8.30;99.90;;;;;;5030328;28;20187;-85
2022/05/07 03:29:42;;;;;;;3.20;2.60;;;8.20;99.90;;;;;;5045236;28;20179;-83
2022/05/07 03:32:09;;;;;;;3.33;3.03;;;8.20;99.90;;;;;;5030398;28;20207;-83
2022/05/07 03:34:35;;;;;;;2.93;2.63;;;8.10;99.90;;;;;;5030628;28;20282;-83
2022/05/07 03:37:00;;;;;;;5.07;3.10;;;8.20;99.90;;;;;;5031225;28;20702;-82
2022/05/07 03:39:26;;;;;;;3.03;2.57;;;8.30;99.90;;;;;;5045994;28;20191;-83
2022/05/07 03:41:52;;;;;;;3.53;3.23;;;8.30;99.90;;;;;;5046325;28;20209;-80
2022/05/07 03:44:18;;;;;;;2.80;2.60;;;8.30;99.90;;;;;;5046502;28;20242;-81
2022/05/07 03:46:43;;;;;;;2.70;2.50;;;8.50;99.90;;;;;;5045837;28;20593;-83
2022/05/07 03:49:09;;;;;;;4.77;2.60;;;8.60;99.90;;;;;;5030954;28;20219;-84
2022/05/07 03:53:29;;;;;;;3.53;2.57;;;8.60;99.90;;;;;;5030850;28;20270;-82
2022/05/07 03:54:20;;;;;;;4.00;2.60;;;8.70;99.90;;;;;;5031469;28;20174;-83
2022/05/07 03:56:46;;;;;;;3.10;2.80;;;8.70;99.90;;;;;;5031173;28;20689;-81
2022/05/07 03:59:11;;;;;;;2.80;2.50;;;8.80;99.90;;;;;;5030655;28;20190;-81
2022/05/07 04:01:37;;;;;;;3.30;2.53;;;8.90;99.90;;;;;;5045763;28;20190;-81
2022/05/07 04:04:03;;;;;;;3.33;2.50;;;9.10;99.90;;;;;;5030379;28;20194;-83
2022/05/07 04:06:28;;;;;;;3.17;2.80;;;9.10;99.90;;;;;;5031158;28;20191;-83
2022/05/07 04:08:54;;;;;;;4.37;2.97;;;9.10;99.90;;;;;;5046082;28;20210;-82
2022/05/07 04:11:19;;;;;;;3.20;2.90;;;9.20;99.90;;;;;;5046180;28;20190;-82
2022/05/07 04:13:45;;;;;;;4.10;2.87;;;9.30;99.90;;;;;;5049101;28;20248;-81
2022/05/07 04:16:10;;;;;;;6.57;3.03;;;9.50;99.90;;;;;;5034810;28;20623;-83
2022/05/07 04:18:36;;;;;;;3.97;3.00;;;9.50;99.90;;;;;;5048429;28;20187;-80
2022/05/07 04:21:02;;;;;;;3.30;2.63;;;9.70;99.90;;;;;;5034551;28;20194;-83
2022/05/07 04:23:30;;;;;;;2.87;2.50;;;9.80;99.90;;;;;;5036663;28;21047;-81
2022/05/07 04:25:56;;;;;;;4.27;2.70;;;9.80;99.90;;;;;;5050431;28;20187;-81
2022/05/07 04:28:21;;;;;;;4.87;2.57;;;9.90;99.90;;;;;;5049068;28;20246;-82
2022/05/07 04:30:47;;;;;;;2.90;2.60;;;10.00;99.90;;;;;;5047204;28;20240;-83
2022/05/07 04:33:15;;;;;;;2.87;2.60;;;10.10;99.90;;;;;;5043688;28;20221;-83
2022/05/07 04:35:41;;;;;;;3.07;2.77;;;10.20;99.90;;;;;;5043858;28;20186;-83
2022/05/07 04:38:06;;;;;;;5.77;3.13;;;10.30;99.90;;;;;;5043639;28;20573;-82
2022/05/07 04:40:32;;;;;;;3.40;3.10;;;10.50;99.90;;;;;;5043462;28;20191;-82
2022/05/07 04:42:57;;;;;;;2.90;2.70;;;10.50;99.90;;;;;;5044257;28;20210;-82
2022/05/07 04:45:25;;;;;;;4.43;2.77;;;10.50;99.90;;;;;;5043844;28;20233;-82
2022/05/07 04:47:51;;;;;;;3.67;3.00;;;10.60;99.90;;;;;;5047019;28;20214;-80
2022/05/07 04:50:17;;;;;;;3.60;2.87;;;10.70;99.90;;;;;;5044707;28;20198;-83
2022/05/07 04:52:42;;;;;;;3.80;2.70;;;10.70;99.90;;;;;;5045108;28;20206;-83
2022/05/07 04:55:08;;;;;;;3.43;2.70;;;10.70;99.90;;;;;;5046718;28;20189;-84
2022/05/07 04:58:21;;;;;;;2.97;2.60;;;10.60;99.90;;;;;;5033771;28;20186;-81
2022/05/07 05:00:32;;;;;;;4.40;2.90;;;10.60;99.90;;;;;;5021821;28;20227;-84
2022/05/07 05:02:58;;;;;;;3.50;3.10;;;10.80;99.90;;;;;;5028169;28;20268;-83
2022/05/07 05:05:25;;;;;;;2.83;2.63;;;10.80;99.90;;;;;;5028938;28;20178;-84
2022/05/07 05:07:51;;;;;;;3.40;3.10;;;10.90;99.90;;;;;;5028986;28;20230;-84
2022/05/07 05:10:18;;;;;;;4.33;3.00;;;10.90;99.90;;;;;;5044528;28;20218;-82
2022/05/07 05:12:43;;;;;;;2.97;2.70;;;10.90;99.90;;;;;;5044468;28;20600;-81
2022/05/07 05:15:09;;;;;;;3.47;2.87;;;11.20;99.90;;;;;;5044104;28;20188;-83
2022/05/07 05:17:37;;;;;;;3.50;2.80;;;11.20;99.90;;;;;;5049033;28;20194;-83
2022/05/07 05:20:04;;;;;;;3.40;3.10;;;11.40;99.90;;;;;;5044825;28;20198;-83
2022/05/07 05:22:30;;;;;;;3.37;3.07;;;11.50;99.90;;;;;;5044500;28;20236;-83
2022/05/07 05:24:56;;;;;;;3.07;2.77;;;11.60;99.90;;;;;;5043948;28;20278;-82
2022/05/07 05:27:22;;;;;;;2.75;2.47;;;11.60;99.90;;;;;;5029787;28;20707;-84
2022/05/07 05:29:47;;;;;;;3.40;3.00;;;12.00;99.90;;;;;;5044280;28;20846;-83
2022/05/07 05:32:22;;;;;;;2.65;2.45;;;12.50;99.90;;;;;;5044513;28;20242;-83
2022/05/07 05:34:49;;;;;;;3.25;2.53;;;13.10;99.90;;;;;;5043979;28;20177;-83
2022/05/07 05:37:16;;;;;;;3.45;2.67;;;13.70;99.90;;;;;;5029289;28;20187;-82
2022/05/07 05:39:41;;;;;;;2.47;2.28;;;14.40;99.90;;;;;;5044449;28;20966;-84
2022/05/07 05:42:08;;;;;;;5.05;2.78;;;15.00;99.90;;;;;;5029895;28;20206;-83
2022/05/07 05:44:39;;;;;;;2.95;2.65;;;15.60;99.90;;;;;;5028387;28;20183;-84
2022/05/07 05:47:06;;;;;;;2.72;2.53;;;15.70;99.90;;;;;;5043806;28;20179;-81
2022/05/07 05:49:33;;;;;;;2.95;2.58;;;16.00;99.90;;;;;;5042251;28;21428;-83
2022/05/07 05:52:08;;;;;;;2.55;2.30;;;16.60;99.90;;;;;;5042155;28;20195;-81
2022/05/07 05:54:36;;;;;;;3.17;2.50;;;17.30;99.90;;;;;;5025770;28;20190;-82
2022/05/07 05:57:02;;;;;;;2.47;2.03;;;18.10;99.90;;;;;;5041060;28;20183;-78
2022/05/07 05:59:28;;;;;;;3.38;2.35;;;18.60;99.90;;;;;;5041293;28;20324;-82
2022/05/07 06:01:54;;;;;;;3.28;2.38;;;19.20;99.90;;;;;;5040939;28;20206;-81
2022/05/07 06:04:20;;;;;;;4.13;2.78;;;19.40;99.90;;;;;;5050193;28;20730;-79
2022/05/07 06:06:46;;;;;;;3.03;2.58;;;19.70;99.90;;;;;;5041310;28;20274;-79
2022/05/07 06:09:11;;;;;;;2.50;2.30;;;19.60;99.90;;;;;;5025859;28;20218;-81
2022/05/07 06:11:38;;;;;;;4.32;2.58;;;19.40;99.90;;;;;;5025673;28;20218;-79
2022/05/07 06:14:03;;;;;;;2.60;2.40;;;18.60;99.90;;;;;;5041270;28;20652;-80
2022/05/07 06:16:29;;;;;;;4.43;2.75;;;18.20;99.90;;;;;;5041505;28;20960;-81
2022/05/07 06:18:55;;;;;;;2.70;2.50;;;17.80;99.90;;;;;;5044309;28;20182;-80
2022/05/07 06:21:20;;;;;;;3.17;2.50;;;17.50;99.90;;;;;;5044839;28;20548;-81
2022/05/07 06:23:46;;;;;;;3.30;3.00;;;17.40;99.90;;;;;;5028556;28;20318;-80
2022/05/07 06:28:55;;;;;;;2.63;2.42;;;17.30;99.90;;;;;;5028871;28;21062;-83
2022/05/07 06:31:21;;;;;;;3.17;2.88;;;17.40;99.90;;;;;;5043519;28;20187;-81
2022/05/07 06:33:47;;;;;;;4.65;3.00;;;17.70;99.90;;;;;;5043344;28;20186;-82
2022/05/07 06:36:12;;;;;;;3.28;2.70;;;17.90;99.90;;;;;;5030635;28;20198;-82
2022/05/07 06:38:38;;;;;;;3.38;3.03;;;18.20;99.90;;;;;;5047922;28;20183;-80
2022/05/07 06:41:05;;;;;;;4.75;3.03;;;18.60;99.90;;;;;;5046438;28;20187;-81
2022/05/07 06:43:32;;;;;;;5.32;2.88;;;18.70;99.90;;;;;;5031064;28;20244;-82
2022/05/07 06:45:58;;;;;;;4.07;3.08;;;19.00;99.90;;;;;;5032537;28;20209;-82
2022/05/07 06:48:25;;;;;;;5.00;3.50;;;19.20;99.90;;;;;;5039845;28;20229;-80
2022/05/07 06:50:52;;;;;;;5.43;3.38;;;19.30;99.90;;;;;;5029374;28;20297;-83
2022/05/07 06:53:17;;;;;;;5.95;3.38;;;19.40;99.90;;;;;;5031205;28;20230;-81
2022/05/07 06:55:55;;;;;;;5.10;3.33;;;19.70;99.90;;;;;;5032357;28;20683;-80
2022/05/07 06:58:30;;;;;;;7.80;3.30;;;19.70;99.90;;;;;;5032154;28;20228;-82
2022/05/07 07:00:57;;;;;;;5.07;3.13;;;19.70;99.90;;;;;;5046411;28;20194;-80
2022/05/07 07:03:23;;;;;;;5.25;3.40;;;19.80;99.90;;;;;;5030465;28;20203;-85
2022/05/07 07:05:50;;;;;;;5.85;3.30;;;19.60;99.90;;;;;;5031127;28;20179;-84
2022/05/07 07:08:16;;;;;;;4.28;3.33;;;19.30;99.90;;;;;;5031072;28;20229;-80
2022/05/07 07:10:42;;;;;;;6.63;3.40;;;19.00;99.90;;;;;;5044904;28;20179;-84
2022/05/07 07:13:08;;;;;;;4.80;3.45;;;18.90;99.90;;;;;;5045890;28;20244;-81
2022/05/07 07:15:33;;;;;;;5.00;3.67;;;19.20;99.90;;;;;;5030637;28;20197;-83
2022/05/07 07:17:59;;;;;;;5.60;3.40;;;19.40;99.90;;;;;;5045443;28;20229;-83
2022/05/07 07:20:24;;;;;;;4.10;3.30;;;19.50;99.90;;;;;;5046377;28;20182;-81
2022/05/07 07:22:50;;;;;;;6.53;3.72;;;19.80;99.90;;;;;;5045031;28;20206;-82
2022/05/07 07:25:16;;;;;;;6.05;4.40;;;20.10;99.90;;;;;;5045441;28;20183;-81
2022/05/07 07:27:42;;;;;;;5.28;3.38;;;20.60;99.90;;;;;;5045714;28;20230;-83
2022/05/07 07:30:08;;;;;;;9.38;4.20;;;20.80;99.90;;;;;;5045457;28;20191;-83
2022/05/07 07:32:33;;;;;;;6.70;4.07;;;20.80;99.90;;;;;;5045595;28;20294;-84
2022/05/07 07:34:59;;;;;;;4.22;3.40;;;20.80;99.90;;;;;;5029565;28;20191;-81
2022/05/07 07:37:25;;;;;;;5.78;3.83;;;20.70;99.90;;;;;;5030564;28;20186;-85
2022/05/07 07:39:50;;;;;;;5.60;3.45;;;20.60;99.90;;;;;;5044704;28;20210;-82
2022/05/07 07:42:20;;;;;;;6.95;3.92;;;20.50;99.90;;;;;;5030351;28;20245;-83
2022/05/07 07:47:56;;;;;;;4.50;3.67;;;20.70;99.90;;;;;;5045316;28;20210;-82
2022/05/07 07:50:15;;;;;;;5.32;3.58;;;21.00;99.90;;;;;;5029938;28;20197;-81
2022/05/07 07:52:41;;;;;;;7.30;4.55;;;21.20;99.90;;;;;;5044549;28;20195;-84
2022/05/07 07:55:07;;;;;;;4.80;3.45;;;21.30;99.90;;;;;;5029697;28;20644;-84
2022/05/07 07:57:32;;;;;;;5.40;4.00;;;21.40;99.90;;;;;;5045039;28;20179;-84
2022/05/07 07:59:59;;;;;;;5.15;4.32;;;21.40;99.90;;;;;;5043461;28;20193;-82
2022/05/07 08:02:24;;;;;;;5.43;4.22;;;21.20;99.90;;;;;;5044659;28;20665;-85
2022/05/07 08:04:54;;;;;;;5.82;4.10;;;20.80;99.90;;;;;;5043721;28;20219;-82
2022/05/07 08:12:48;;;;;;;7.25;4.00;;;20.40;99.90;;;;;;5028870;28;20229;-83
2022/05/07 08:15:13;;;;;;;5.43;4.07;;;20.10;99.90;;;;;;5028939;28;20199;-83
2022/05/07 08:17:40;;;;;;;7.60;4.60;;;20.10;99.90;;;;;;5044030;28;20199;-83
2022/05/07 08:20:09;;;;;;;6.10;4.15;;;20.20;99.90;;;;;;5044348;28;20190;-85
2022/05/07 08:22:35;;;;;;;6.15;5.05;;;20.30;99.90;;;;;;5043675;28;20207;-83
2022/05/07 08:25:01;;;;;;;5.93;4.38;;;20.10;99.90;;;;;;5043367;28;20691;-83
2022/05/07 08:27:27;;;;;;;9.15;4.40;;;20.20;99.90;;;;;;5043849;28;20428;-81
2022/05/07 08:29:56;;;;;;;5.95;4.07;;;20.30;99.90;;;;;;5043997;28;20239;-83
2022/05/07 08:32:21;;;;;;;4.32;3.92;;;20.20;99.90;;;;;;5043372;28;20640;-85
2022/05/07 08:34:48;;;;;;;5.65;4.50;;;20.20;99.90;;;;;;5043437;28;20210;-81
2022/05/07 08:37:14;;;;;;;5.57;4.53;;;19.90;99.90;;;;;;5043600;28;20269;-81
2022/05/07 08:39:40;;;;;;;4.93;4.10;;;19.90;99.90;;;;;;5027641;28;20716;-81
2022/05/07 08:42:06;;;;;;;6.18;4.93;;;20.10;99.90;;;;;;5040300;28;20215;-81
2022/05/07 08:44:33;;;;;;;5.47;4.60;;;20.40;99.90;;;;;;5024523;28;20225;-82
2022/05/07 08:46:59;;;;;;;4.53;4.13;;;20.60;99.90;;;;;;5040238;28;20213;-82
2022/05/07 08:49:25;;;;;;;5.10;4.22;;;20.80;99.90;;;;;;5039300;28;20234;-82
2022/05/07 08:51:54;;;;;;;5.03;4.30;;;21.00;99.90;;;;;;5039808;28;20202;-81
2022/05/07 08:54:20;;;;;;;8.57;4.78;;;21.20;99.90;;;;;;5039494;28;20233;-80
2022/05/07 08:56:46;;;;;;;5.68;4.40;;;21.30;99.90;;;;;;5039050;28;20720;-80
2022/05/07 08:59:11;;;;;;;6.50;4.20;;;21.50;99.90;;;;;;5038759;28;20221;-79
2022/05/07 09:01:37;;;;;;;4.85;3.83;;;21.80;99.90;;;;;;5023592;28;20194;-79
2022/05/07 09:04:09;;;;;;;5.50;4.10;;;22.10;99.90;;;;;;5023920;28;20179;-78
2022/05/07 09:06:36;;;;;;;5.40;4.65;;;22.50;99.90;;;;;;5038393;28;20182;-80
2022/05/07 09:09:06;;;;;;;5.18;4.28;;;22.80;99.30;;;;;;5038340;28;20246;-79
2022/05/07 09:11:44;;;;;;;7.80;4.45;;;22.50;99.80;;;;;;5039322;28;20199;-78
2022/05/07 09:14:11;;;;;;;6.03;4.35;;;22.40;99.90;;;;;;5026997;28;20273;-80
2022/05/07 09:16:46;;;;;;;5.40;4.47;;;22.50;99.60;;;;;;5040786;28;20181;-79
2022/05/07 09:19:23;;;;;;;7.10;4.30;;;22.50;99.50;;;;;;5026532;28;20210;-78
2022/05/07 09:21:49;;;;;;;4.70;4.30;;;22.80;99.40;;;;;;5041119;28;20696;-78
2022/05/07 09:24:15;;;;;;;6.38;4.75;;;22.90;98.50;;;;;;5040160;28;20245;-81
2022/05/07 09:26:43;;;;;;;5.82;4.90;;;22.90;97.50;;;;;;5026482;28;20545;-85
2022/05/07 09:29:14;;;;;;;5.15;4.57;;;22.70;97.80;;;;;;5046182;28;20210;-82
2022/05/07 09:31:41;;;;;;;5.68;4.63;;;22.90;97.60;;;;;;5046517;28;20210;-81
2022/05/07 09:37:18;;;;;;;5.30;4.50;;;23.10;97.80;;;;;;5029261;28;20197;-82
2022/05/07 09:39:48;;;;;;;7.97;4.78;;;23.30;97.70;;;;;;5045280;28;20657;-82
2022/05/07 09:42:20;;;;;;;5.10;4.60;;;23.60;97.00;;;;;;5031669;28;20826;-82
2022/05/07 09:44:46;;;;;;;6.63;5.18;;;23.70;96.30;;;;;;5046651;28;20186;-84
2022/05/07 09:47:13;;;;;;;6.70;5.07;;;23.80;95.60;;;;;;5045270;28;20229;-83
2022/05/07 09:58:21;;;;;;;6.43;5.65;;;23.30;95.90;;;;;;5031354;28;20229;-84
2022/05/07 10:01:14;;;;;;;7.20;5.97;;;23.20;95.40;;;;;;5029974;28;20214;-82
2022/05/07 10:04:05;;;;;;;6.97;5.70;;;22.80;95.50;;;;;;5043816;28;20207;-84
2022/05/07 10:06:56;;;;;;;7.78;5.93;;;22.40;96.40;;;;;;5043768;28;20253;-82
2022/05/07 10:09:40;;;;;;;6.57;5.43;;;22.60;96.10;;;;;;5043236;28;20218;-83
2022/05/07 10:12:07;;;;;;;5.88;5.28;;;22.40;96.80;;;;;;5047353;28;20218;-83
2022/05/07 10:14:33;;;;;;;8.13;5.88;;;22.90;95.80;;;;;;5047794;28;20350;-82
2022/05/07 10:17:07;;;;;;;9.30;5.93;;;23.20;96.00;;;;;;5047684;28;20187;-83
2022/05/07 10:19:39;;;;;;;10.57;6.63;;;23.40;96.60;;;;;;5033464;28;20400;-83
2022/05/07 10:22:24;;;;;;;8.38;6.68;;;23.20;95.80;;;;;;5047956;28;20241;-83
2022/05/07 10:25:04;;;;;;;7.40;6.15;;;22.10;97.00;;;;;;5048411;28;20403;-82
2022/05/07 10:27:38;;;;;;;8.80;6.07;;;21.50;99.00;;;;;;5033536;28;20183;-82
2022/05/07 10:30:04;;;;;;;7.80;6.10;;;21.30;98.90;;;;;;5049837;28;20719;-81
2022/05/07 10:32:30;;;;;;;8.73;6.28;;;21.70;98.60;;;;;;5033695;28;20203;-82
2022/05/07 10:34:56;;;;;;;9.40;6.60;;;22.00;97.60;;;;;;5049302;28;20187;-83
2022/05/07 10:37:22;;;;;;;8.38;6.65;;;22.30;97.20;;;;;;5050002;28;20190;-82
2022/05/07 10:39:52;;;;;;;7.15;6.13;;;22.70;96.90;;;;;;5051566;28;20179;-83
2022/05/07 10:42:19;;;;;;;8.05;6.60;;;23.30;95.80;;;;;;5036662;28;20630;-82
2022/05/07 10:44:45;;;;;;;12.32;6.65;;;23.50;95.00;;;;;;5050934;28;20187;-84
2022/05/07 10:47:13;;;;;;;8.25;6.30;;;23.30;95.00;;;;;;5049801;28;20187;-81
2022/05/07 10:49:53;;;;;;;9.57;5.65;;;22.80;95.30;;;;;;5048698;28;20221;-82
2022/05/07 10:52:33;;;;;;;7.55;6.10;;;22.60;96.20;;;;;;5048617;28;20213;-81
2022/05/07 10:55:17;;;;;;;8.27;5.43;;;22.80;95.80;;;;;;5033782;28;20183;-81
2022/05/07 10:57:47;;;;;;;7.43;6.18;;;23.30;95.30;;;;;;5048770;28;20214;-83
2022/05/07 11:00:18;;;;;;;8.40;6.22;;;23.00;94.90;;;;;;5033497;28;20209;-82
2022/05/07 11:02:45;;;;;;;7.25;5.78;;;23.20;94.20;;;;;;5049321;28;20639;-83
2022/05/07 11:05:12;;;;;;;7.40;5.47;;;23.50;94.10;;;;;;5049058;28;20325;-83
2022/05/07 11:07:39;;;;;;;9.85;6.78;;;23.70;93.20;;;;;;5048100;28;20182;-84
2022/05/07 11:10:05;;;;;;;7.90;5.60;;;23.60;92.80;;;;;;5048406;28;20183;-84
2022/05/07 11:12:31;;;;;;;6.75;5.70;;;23.70;92.80;;;;;;5050331;28;20345;-82
2022/05/07 11:14:57;;;;;;;6.60;6.00;;;23.60;92.90;;;;;;5048940;28;20653;-82
2022/05/07 11:17:35;;;;;;;7.45;6.55;;;23.40;93.00;;;;;;5033016;28;20183;-83
2022/05/07 11:20:02;;;;;;;7.13;6.43;;;23.10;93.10;;;;;;5050651;28;20186;-82
2022/05/07 11:22:31;;;;;;;9.85;6.53;;;22.60;93.50;;;;;;5048118;28;20587;-84
2022/05/07 11:24:59;;;;;;;10.57;6.30;;;22.10;94.50;;;;;;5048685;28;20175;-84
2022/05/07 11:27:32;;;;;;;8.88;6.50;;;21.70;97.10;;;;;;5047889;28;20290;-82
2022/05/07 11:29:58;;;;;;;8.55;5.95;;;21.40;98.20;;;;;;5048432;28;20209;-82
2022/05/07 11:32:24;;;;;;;8.80;6.10;;;21.60;99.20;;;;;;5049186;28;20280;-81
2022/05/07 11:34:55;;;;;;;8.68;5.60;;;22.00;98.90;;;;;;5048593;28;20246;-84
2022/05/07 11:37:23;;;;;;;7.82;6.20;;;21.80;98.20;;;;;;5049445;28;21028;-83
2022/05/07 11:39:54;;;;;;;9.20;6.70;;;21.30;99.40;;;;;;5049103;28;20233;-82
2022/05/07 11:42:31;;;;;;;7.97;6.50;;;21.60;98.20;;;;;;5034670;28;20230;-83
2022/05/07 11:47:57;;;;;;;7.72;5.85;;;22.30;96.90;;;;;;5034096;28;20193;-81
2022/05/07 11:50:26;;;;;;;6.32;5.70;;;22.60;95.20;;;;;;5043181;28;20182;-82
2022/05/07 11:52:53;;;;;;;5.45;4.95;;;22.80;96.20;;;;;;5041039;28;20215;-82
2022/05/07 11:55:29;;;;;;;7.43;6.30;;;23.20;96.00;;;;;;5041403;28;20569;-81
2022/05/07 11:57:56;;;;;;;9.93;6.38;;;23.40;94.90;;;;;;5040831;28;20261;-82
2022/05/07 12:00:27;;;;;;;10.43;6.45;;;22.80;95.20;;;;;;5025375;28;20195;-82
2022/05/07 12:02:54;;;;;;;9.77;6.63;;;22.60;96.30;;;;;;5026421;28;20353;-83
2022/05/07 12:05:21;;;;;;;7.30;6.35;;;22.80;95.90;;;;;;5029746;28;20216;-82
2022/05/07 12:07:49;;;;;;;8.50;6.78;;;22.80;95.40;;;;;;5044425;28;20684;-84
2022/05/07 12:10:17;;;;;;;7.82;6.38;;;22.70;95.00;;;;;;5030624;28;20190;-81
2022/05/07 12:12:43;;;;;;;8.88;6.90;;;22.20;94.70;;;;;;5028656;28;20688;-84
2022/05/07 12:15:09;;;;;;;8.88;6.40;;;22.00;95.20;;;;;;5045869;28;20633;-81
2022/05/07 12:17:53;;;;;;;7.75;6.65;;;22.00;95.40;;;;;;5043836;28;20233;-84
2022/05/07 12:20:23;;;;;;;8.05;5.97;;;22.10;95.20;;;;;;5043784;28;20262;-84
2022/05/07 12:31:02;;;;;;;6.70;6.00;;;22.30;95.10;;;;;;5029096;28;20232;-82
2022/05/07 12:33:28;;;;;;;8.07;6.45;;;22.50;95.10;;;;;;5038065;28;20207;-84
2022/05/07 12:35:54;;;;;;;7.53;5.45;;;22.50;94.10;;;;;;5037385;28;20214;-84
2022/05/07 12:38:20;;;;;;;7.57;5.60;;;22.70;94.40;;;;;;5037372;28;20657;-87
2022/05/07 12:40:45;;;;;;;9.02;5.80;;;23.20;92.90;;;;;;5037960;28;20201;-83
2022/05/07 12:43:11;;;;;;;5.70;5.00;;;23.60;92.10;;;;;;5021769;28;20684;-84
2022/05/07 12:45:36;;;;;;;6.13;5.43;;;23.90;92.00;;;;;;5038707;28;20600;-84
2022/05/07 12:48:02;;;;;;;6.45;5.30;;;23.20;92.70;;;;;;5038651;28;20214;-82
2022/05/07 12:50:28;;;;;;;6.95;5.10;;;23.00;92.90;;;;;;5038400;28;20190;-84
2022/05/07 12:52:54;;;;;;;5.32;4.80;;;23.50;91.90;;;;;;5039352;28;20203;-84
2022/05/07 12:55:20;;;;;;;5.97;5.28;;;23.70;90.90;;;;;;5038649;28;20557;-84
2022/05/07 12:57:45;;;;;;;5.68;4.25;;;24.20;89.90;;;;;;5038519;28;20186;-84
2022/05/07 13:00:12;;;;;;;5.55;4.30;;;24.50;89.40;;;;;;5037893;28;20175;-85
2022/05/07 13:02:38;;;;;;;6.13;4.63;;;23.70;89.90;;;;;;5023252;28;20203;-84
2022/05/07 13:05:04;;;;;;;6.00;4.30;;;23.40;90.00;;;;;;5024048;28;20538;-84
2022/05/07 13:07:30;;;;;;;5.97;4.55;;;23.50;90.30;;;;;;5038266;28;20179;-85
2022/05/07 13:09:55;;;;;;;5.05;3.55;;;24.00;88.60;;;;;;5024094;28;20197;-85
2022/05/07 13:12:23;;;;;;;4.85;3.75;;;24.50;88.30;;;;;;5038484;28;20223;-86
2022/05/07 13:14:49;;;;;;;6.00;4.38;;;25.10;87.00;;;;;;5038002;28;20242;-83
2022/05/07 13:17:15;;;;;;;6.43;4.72;;;25.10;86.50;;;;;;5038012;28;20270;-86
2022/05/07 13:19:41;;;;;;;5.03;4.53;;;25.00;85.80;;;;;;5037711;28;20186;-84
2022/05/07 13:22:07;;;;;;;5.43;4.57;;;24.70;88.60;;;;;;5037631;28;20214;-85
2022/05/07 13:24:32;;;;;;;7.45;4.88;;;24.40;89.00;;;;;;5037990;28;20222;-85
2022/05/07 13:26:58;;;;;;;9.32;6.22;;;24.00;89.60;;;;;;5037151;28;20183;-85
2022/05/07 13:29:23;;;;;;;6.88;6.18;;;23.30;91.40;;;;;;5036974;28;20208;-85
2022/05/07 13:31:49;;;;;;;5.90;5.40;;;22.60;93.40;;;;;;5023335;28;20297;-86
2022/05/07 13:34:15;;;;;;;5.93;5.28;;;22.10;94.40;;;;;;5023283;28;20187;-86
2022/05/07 13:36:41;;;;;;;6.90;5.22;;;21.90;95.40;;;;;;5038581;28;20191;-84